Alkor — DBND — position and weather

sailwx.info

Track history (hours):
 
Tides and Currents Weather Stations Pressure Air Temp Water Temp Dewpoint Dewpoint Depression Visibility Wind Speed Wind Dir Waves Ship Positions

Oceanographic research ship Alkor (Germany)

Ship's website: http://www.briese.de/

Detailed information on ship capabilities available from University of Delaware's Ocean Information Center.

Last reported at 2018-Jun-20 03:45 UTC. Time now 2018-Jun-22 07:39 UTC.
Position N 54°20' E 010°09'.

Length 55 m; draft 4.2 m.

Type: Ship. MMSI: 211216512.

Date/timePositionNaut miles runAvg speedWind from/ knotsBaromVisibWave heightAir tempDewpointWater temp
2018-Jun-20 03:45N 54°20' E 010°09'0 0.0
2018-Jun-20 03:29N 54°20' E 010°09'0 0.0
2018-Jun-20 02:58N 54°20' E 010°09'0 0.0
2018-Jun-20 02:29N 54°20' E 010°09'0 0.0
2018-Jun-20 02:00N 54°20' E 010°09'0 0.0
2018-Jun-20 01:30N 54°20' E 010°09'0 0.0
2018-Jun-20 01:00N 54°20' E 010°09'0 0.0
2018-Jun-20 00:26N 54°20' E 010°09'0 0.0
2018-Jun-19 23:49N 54°20' E 010°09'  
2018-Jun-16 03:00N 54°20' E 010°09'0 0.0
2018-Jun-16 02:30N 54°20' E 010°09'0 0.0
2018-Jun-16 02:00N 54°20' E 010°09'0 0.0
2018-Jun-16 01:30N 54°20' E 010°09'0 0.0
2018-Jun-16 01:00N 54°20' E 010°09'16 1.1
2018-Jun-15 10:05N 54°35' E 010°17'112.5
2018-Jun-15 09:58N 54°37' E 010°18'6 4.1
2018-Jun-15 08:26N 54°42' E 010°13'4 0.4
2018-Jun-14 22:24N 54°39' E 010°15'2 0.6
2018-Jun-14 19:08N 54°41' E 010°15'6 1.9
2018-Jun-14 15:49N 54°36' E 010°07'3 5.4
2018-Jun-14 15:19N 54°39' E 010°08'1 0.5
2018-Jun-14 13:50N 54°39' E 010°07'6 7.8
2018-Jun-14 13:04N 54°45' E 010°09'2 8.6
2018-Jun-14 12:52N 54°45' E 010°12'3 8.9
2018-Jun-14 12:29N 54°41' E 010°12'7 1.6
2018-Jun-14 08:10N 54°35' E 010°07'6 0.8
2018-Jun-14 00:37N 54°39' E 010°15'1 4.1
2018-Jun-14 00:18N 54°40' E 010°16'3 1.5
2018-Jun-13 22:41N 54°42' E 010°15'3 1.8
2018-Jun-13 21:06N 54°43' E 010°10'1 4.8
2018-Jun-13 20:54N 54°44' E 010°10'7 3.5
2018-Jun-13 18:59N 54°37' E 010°08'3 3.0
2018-Jun-13 18:07N 54°35' E 010°07'0 0.3
2018-Jun-13 16:31N 54°35' E 010°08'6 3.6
2018-Jun-13 14:50N 54°30' E 010°12'2 0.4
2018-Jun-13 08:28N 54°31' E 010°15'11 0.6
2018-Jun-12 14:13N 54°40' E 010°05'6 7.0
2018-Jun-12 13:23N 54°41' E 010°15'4 0.3
2018-Jun-12 02:48N 54°38' E 010°19'7 8.8
2018-Jun-12 01:59N 54°39' E 010°07'6 6.3
2018-Jun-12 01:04N 54°39' E 010°17'1 3.9
2018-Jun-12 00:55N 54°40' E 010°18'5 9.8
2018-Jun-12 00:23N 54°40' E 010°09'1 2.3
2018-Jun-11 23:59N 54°40' E 010°07'5 9.5
2018-Jun-11 23:29N 54°40' E 010°16'3 5.4
2018-Jun-11 23:00N 54°41' E 010°11'3 5.2
2018-Jun-11 22:30N 54°41' E 010°07'3 5.4
2018-Jun-11 21:58N 54°41' E 010°12'2 3.8
2018-Jun-11 21:30N 54°42' E 010°15'5 9.6
2018-Jun-11 21:00N 54°42' E 010°06'1 2.8
2018-Jun-11 20:29N 54°42' E 010°08'4 8.5
2018-Jun-11 20:00N 54°43' E 010°15'4 8.3
2018-Jun-11 19:30N 54°43' E 010°08'3 1.7
2018-Jun-11 17:50N 54°40' E 010°09'1 1.3
2018-Jun-11 17:22N 54°40' E 010°10'2 0.4
2018-Jun-11 11:49N 54°41' E 010°14'1 0.7
2018-Jun-11 10:01N 54°42' E 010°14'0 4.1
2018-Jun-11 09:57N 54°42' E 010°15'6 1.4
2018-Jun-11 05:47N 54°42' E 010°04'0 0.1
2018-Jun-11 04:39N 54°42' E 010°04'0 0.3
2018-Jun-11 04:24N 54°42' E 010°04'4 1.5
2018-Jun-11 01:25N 54°41' E 010°12'3 6.0
2018-Jun-11 00:58N 54°42' E 010°07'2 3.1
2018-Jun-11 00:21N 54°42' E 010°11'1 3.1
2018-Jun-10 23:52N 54°42' E 010°08'2 2.7
2018-Jun-10 22:59N 54°43' E 010°12'5 1.1
2018-Jun-10 18:19N 54°40' E 010°06'1 3.4
2018-Jun-10 17:54N 54°40' E 010°08'2 0.9
2018-Jun-10 15:36N 54°42' E 010°07'3 2.0
2018-Jun-10 13:58N 54°45' E 010°09'4 9.1
2018-Jun-10 13:30N 54°41' E 010°09'3 5.4
2018-Jun-10 13:00N 54°40' E 010°13'5 9.5
2018-Jun-10 12:30N 54°40' E 010°05'4 8.7
2018-Jun-10 12:00N 54°39' E 010°13'3 5.1
2018-Jun-10 11:30N 54°39' E 010°08'4 8.0
2018-Jun-10 10:59N 54°43' E 010°07'1 1.7
2018-Jun-10 10:30N 54°43' E 010°08'2 4.1
2018-Jun-10 09:59N 54°40' E 010°08'3 6.5
2018-Jun-10 09:28N 54°37' E 010°08'3 6.5
2018-Jun-10 09:00N 54°40' E 010°09'0 0.8
2018-Jun-10 08:30N 54°40' E 010°08'1 1.4
2018-Jun-10 08:00N 54°39' E 010°07'1 2.7
2018-Jun-10 07:30N 54°41' E 010°07'0 0.2
2018-Jun-10 07:00N 54°41' E 010°07'0 0.4
2018-Jun-10 06:30N 54°41' E 010°08'0 0.1
2018-Jun-10 06:00N 54°41' E 010°08'0 0.1
2018-Jun-10 05:30N 54°41' E 010°08'0 0.1
2018-Jun-10 05:00N 54°41' E 010°08'0 0.0
2018-Jun-10 04:30N 54°41' E 010°08'0 0.2
2018-Jun-10 04:00N 54°41' E 010°08'  
Track history (hours):
 
Tides and Currents Weather Stations Pressure Air Temp Water Temp Dewpoint Dewpoint Depression Visibility Wind Speed Wind Dir Waves Ship Positions

Oceanographic research ship Alkor (Germany)

Ship's website: http://www.briese.de/

Detailed information on ship capabilities available from University of Delaware's Ocean Information Center.

Last reported at 2018-Jun-20 03:45 UTC. Time now 2018-Jun-22 07:39 UTC.
Position N 54°20' E 010°09'.

Length 55 m; draft 4.2 m.

Type: Ship. MMSI: 211216512.

Date/timePositionNaut miles runAvg speedWind from/ knotsBaromVisibWave heightAir tempDewpointWater temp
2018-Jun-20 03:45N 54°20' E 010°09'0 0.0
2018-Jun-20 03:29N 54°20' E 010°09'0 0.0
2018-Jun-20 02:58N 54°20' E 010°09'0 0.0
2018-Jun-20 02:29N 54°20' E 010°09'0 0.0
2018-Jun-20 02:00N 54°20' E 010°09'0 0.0
2018-Jun-20 01:30N 54°20' E 010°09'0 0.0
2018-Jun-20 01:00N 54°20' E 010°09'0 0.0
2018-Jun-20 00:26N 54°20' E 010°09'0 0.0
2018-Jun-19 23:49N 54°20' E 010°09'  
2018-Jun-16 03:00N 54°20' E 010°09'0 0.0
2018-Jun-16 02:30N 54°20' E 010°09'0 0.0
2018-Jun-16 02:00N 54°20' E 010°09'0 0.0
2018-Jun-16 01:30N 54°20' E 010°09'0 0.0
2018-Jun-16 01:00N 54°20' E 010°09'16 1.1
2018-Jun-15 10:05N 54°35' E 010°17'112.5
2018-Jun-15 09:58N 54°37' E 010°18'6 4.1
2018-Jun-15 08:26N 54°42' E 010°13'4 0.4
2018-Jun-14 22:24N 54°39' E 010°15'2 0.6
2018-Jun-14 19:08N 54°41' E 010°15'6 1.9
2018-Jun-14 15:49N 54°36' E 010°07'3 5.4
2018-Jun-14 15:19N 54°39' E 010°08'1 0.5
2018-Jun-14 13:50N 54°39' E 010°07'6 7.8
2018-Jun-14 13:04N 54°45' E 010°09'2 8.6
2018-Jun-14 12:52N 54°45' E 010°12'3 8.9
2018-Jun-14 12:29N 54°41' E 010°12'7 1.6
2018-Jun-14 08:10N 54°35' E 010°07'6 0.8
2018-Jun-14 00:37N 54°39' E 010°15'1 4.1
2018-Jun-14 00:18N 54°40' E 010°16'3 1.5
2018-Jun-13 22:41N 54°42' E 010°15'3 1.8
2018-Jun-13 21:06N 54°43' E 010°10'1 4.8
2018-Jun-13 20:54N 54°44' E 010°10'7 3.5
2018-Jun-13 18:59N 54°37' E 010°08'3 3.0
2018-Jun-13 18:07N 54°35' E 010°07'0 0.3
2018-Jun-13 16:31N 54°35' E 010°08'6 3.6
2018-Jun-13 14:50N 54°30' E 010°12'2 0.4
2018-Jun-13 08:28N 54°31' E 010°15'11 0.6
2018-Jun-12 14:13N 54°40' E 010°05'6 7.0
2018-Jun-12 13:23N 54°41' E 010°15'4 0.3
2018-Jun-12 02:48N 54°38' E 010°19'7 8.8
2018-Jun-12 01:59N 54°39' E 010°07'6 6.3
2018-Jun-12 01:04N 54°39' E 010°17'1 3.9
2018-Jun-12 00:55N 54°40' E 010°18'5 9.8
2018-Jun-12 00:23N 54°40' E 010°09'1 2.3
2018-Jun-11 23:59N 54°40' E 010°07'5 9.5
2018-Jun-11 23:29N 54°40' E 010°16'3 5.4
2018-Jun-11 23:00N 54°41' E 010°11'3 5.2
2018-Jun-11 22:30N 54°41' E 010°07'3 5.4
2018-Jun-11 21:58N 54°41' E 010°12'2 3.8
2018-Jun-11 21:30N 54°42' E 010°15'5 9.6
2018-Jun-11 21:00N 54°42' E 010°06'1 2.8
2018-Jun-11 20:29N 54°42' E 010°08'4 8.5
2018-Jun-11 20:00N 54°43' E 010°15'4 8.3
2018-Jun-11 19:30N 54°43' E 010°08'3 1.7
2018-Jun-11 17:50N 54°40' E 010°09'1 1.3
2018-Jun-11 17:22N 54°40' E 010°10'2 0.4
2018-Jun-11 11:49N 54°41' E 010°14'1 0.7
2018-Jun-11 10:01N 54°42' E 010°14'0 4.1
2018-Jun-11 09:57N 54°42' E 010°15'6 1.4
2018-Jun-11 05:47N 54°42' E 010°04'0 0.1
2018-Jun-11 04:39N 54°42' E 010°04'0 0.3
2018-Jun-11 04:24N 54°42' E 010°04'4 1.5
2018-Jun-11 01:25N 54°41' E 010°12'3 6.0
2018-Jun-11 00:58N 54°42' E 010°07'2 3.1
2018-Jun-11 00:21N 54°42' E 010°11'1 3.1
2018-Jun-10 23:52N 54°42' E 010°08'2 2.7
2018-Jun-10 22:59N 54°43' E 010°12'5 1.1
2018-Jun-10 18:19N 54°40' E 010°06'1 3.4
2018-Jun-10 17:54N 54°40' E 010°08'2 0.9
2018-Jun-10 15:36N 54°42' E 010°07'3 2.0
2018-Jun-10 13:58N 54°45' E 010°09'4 9.1
2018-Jun-10 13:30N 54°41' E 010°09'3 5.4
2018-Jun-10 13:00N 54°40' E 010°13'5 9.5
2018-Jun-10 12:30N 54°40' E 010°05'4 8.7
2018-Jun-10 12:00N 54°39' E 010°13'3 5.1
2018-Jun-10 11:30N 54°39' E 010°08'4 8.0
2018-Jun-10 10:59N 54°43' E 010°07'1 1.7
2018-Jun-10 10:30N 54°43' E 010°08'2 4.1
2018-Jun-10 09:59N 54°40' E 010°08'3 6.5
2018-Jun-10 09:28N 54°37' E 010°08'3 6.5
2018-Jun-10 09:00N 54°40' E 010°09'0 0.8
2018-Jun-10 08:30N 54°40' E 010°08'1 1.4
2018-Jun-10 08:00N 54°39' E 010°07'1 2.7
2018-Jun-10 07:30N 54°41' E 010°07'0 0.2
2018-Jun-10 07:00N 54°41' E 010°07'0 0.4
2018-Jun-10 06:30N 54°41' E 010°08'0 0.1
2018-Jun-10 06:00N 54°41' E 010°08'0 0.1
2018-Jun-10 05:30N 54°41' E 010°08'0 0.1
2018-Jun-10 05:00N 54°41' E 010°08'0 0.0
2018-Jun-10 04:30N 54°41' E 010°08'0 0.2
2018-Jun-10 04:00N 54°41' E 010°08'  

Dump ship's entire track history